createdAt,value
2022-10-19T00:01:21.400Z,102826.72
2022-10-19T00:03:54.925Z,102827.56
2022-10-19T00:06:32.408Z,102832.75
2022-10-19T00:09:16.659Z,102819.69
2022-10-19T00:11:48.406Z,102821.59
2022-10-19T00:14:22.748Z,102831.31
2022-10-19T00:16:52.996Z,102822.56
2022-10-19T00:19:25.696Z,102819.97
2022-10-19T00:21:53.508Z,102816.53
2022-10-19T00:24:21.450Z,102817.47
2022-10-19T00:26:48.496Z,102808.84
2022-10-19T00:29:16.089Z,102804.50
2022-10-19T00:31:43.416Z,102799.31
2022-10-19T00:34:10.958Z,102799.31
2022-10-19T00:36:40.899Z,102813.28
2022-10-19T00:39:13.051Z,102808.00
2022-10-19T00:41:40.912Z,102803.66
2022-10-19T00:44:13.904Z,102806.28
2022-10-19T00:46:44.892Z,102808.84
2022-10-19T00:49:26.515Z,102807.13
2022-10-19T00:52:03.271Z,102810.63
2022-10-19T00:54:36.057Z,102812.38
2022-10-19T00:57:04.685Z,102816.72
2022-10-19T00:59:33.365Z,102814.09
2022-10-19T01:02:03.984Z,102818.47
2022-10-19T01:04:35.224Z,102816.72
2022-10-19T01:07:05.286Z,102815.81
2022-10-19T01:09:32.298Z,102819.28
2022-10-19T01:12:36.332Z,102802.63
2022-10-19T01:15:29.402Z,102817.47
2022-10-19T01:18:33.263Z,102806.94
2022-10-19T01:21:15.408Z,102811.28
2022-10-19T01:24:05.925Z,102810.38
2022-10-19T01:26:57.651Z,102803.34
2022-10-19T01:29:49.067Z,102805.97
2022-10-19T01:32:31.325Z,102804.19
2022-10-19T01:35:18.020Z,102804.16
2022-10-19T01:38:12.716Z,102791.03
2022-10-19T01:41:00.206Z,102788.38
2022-10-19T01:43:59.533Z,102795.28
2022-10-19T01:46:38.701Z,102787.41
2022-10-19T01:49:29.390Z,102778.66
2022-10-19T01:52:04.047Z,102783.88
2022-10-19T01:54:43.507Z,102778.63
2022-10-19T01:57:19.995Z,102770.69
2022-10-19T01:59:49.996Z,102781.19
2022-10-19T02:02:20.748Z,102779.44
2022-10-19T02:04:51.142Z,102775.03
2022-10-19T02:07:22.850Z,102773.31
2022-10-19T02:09:50.298Z,102776.78
2022-10-19T02:12:18.801Z,102772.41
2022-10-19T02:14:56.544Z,102769.72
2022-10-19T02:17:33.363Z,102767.94
2022-10-19T02:20:01.635Z,102770.56
2022-10-19T02:22:29.331Z,102767.03
2022-10-19T02:24:56.437Z,102768.78
2022-10-19T02:27:23.816Z,102769.66
2022-10-19T02:29:52.022Z,102766.13
2022-10-19T02:32:21.468Z,102766.09
2022-10-19T02:34:48.728Z,102762.56
2022-10-19T02:37:15.881Z,102774.78
2022-10-19T02:39:43.147Z,102763.38
2022-10-19T02:42:38.577Z,102762.44
2022-10-19T02:45:05.634Z,102756.31
2022-10-19T02:47:44.923Z,102746.63
2022-10-19T02:50:13.277Z,102752.66
2022-10-19T02:52:41.614Z,102749.97
2022-10-19T02:55:09.303Z,102744.75
2022-10-19T02:57:37.255Z,102736.88
2022-10-19T03:00:08.212Z,102728.97
2022-10-19T03:02:35.358Z,102730.69
2022-10-19T03:05:03.755Z,102734.16
2022-10-19T03:07:30.804Z,102734.16
2022-10-19T03:09:58.062Z,102729.78
2022-10-19T03:12:25.143Z,102734.16
2022-10-19T03:14:52.313Z,102735.00
2022-10-19T03:17:19.582Z,102743.72
2022-10-19T03:19:46.707Z,102741.06
2022-10-19T03:22:14.978Z,102740.19
2022-10-19T03:24:43.099Z,102744.53
2022-10-19T03:27:10.237Z,102742.75
2022-10-19T03:29:37.222Z,102738.34
2022-10-19T03:32:05.014Z,102733.91
2022-10-19T03:34:32.112Z,102737.38
2022-10-19T03:36:59.314Z,102741.69
2022-10-19T03:39:26.611Z,102737.28
2022-10-19T03:41:53.588Z,102735.50
2022-10-19T03:44:20.647Z,102733.75
2022-10-19T03:46:47.681Z,102727.66
2022-10-19T03:49:15.719Z,102727.66
2022-10-19T03:51:42.854Z,102727.66
2022-10-19T03:54:15.406Z,102723.34
2022-10-19T03:56:43.587Z,102726.88
2022-10-19T03:59:14.767Z,102731.19
2022-10-19T04:01:46.159Z,102723.34
2022-10-19T04:04:17.456Z,102726.88
2022-10-19T04:06:49.932Z,102731.28
2022-10-19T04:09:22.453Z,102734.78
2022-10-19T04:11:50.451Z,102735.69
2022-10-19T04:14:31.816Z,102732.19
2022-10-19T04:17:02.393Z,102724.34
2022-10-19T04:19:29.905Z,102731.34
2022-10-19T04:21:57.807Z,102728.72
2022-10-19T04:24:25.246Z,102727.88
2022-10-19T04:26:55.543Z,102727.00
2022-10-19T04:29:29.509Z,102723.50
2022-10-19T04:31:58.602Z,102724.38
2022-10-19T04:34:26.758Z,102736.56
2022-10-19T04:36:53.997Z,102736.53
2022-10-19T04:39:21.028Z,102725.31
2022-10-19T04:41:48.035Z,102726.78
2022-10-19T04:44:15.569Z,102728.84
2022-10-19T04:46:43.652Z,102724.72
2022-10-19T04:49:10.696Z,102730.13
2022-10-19T04:51:37.771Z,102723.13
2022-10-19T04:54:04.911Z,102724.84
2022-10-19T04:56:32.377Z,102731.63
2022-10-19T04:59:01.090Z,102743.56
2022-10-19T05:01:31.267Z,102748.53
2022-10-19T05:04:01.762Z,102739.56
2022-10-19T05:06:31.120Z,102738.50
2022-10-19T05:08:59.174Z,102740.06
2022-10-19T05:11:26.893Z,102722.69
2022-10-19T05:13:54.265Z,102726.97
2022-10-19T05:16:23.750Z,102717.16
2022-10-19T05:18:56.121Z,102718.66
2022-10-19T05:21:23.228Z,102734.16
2022-10-19T05:23:55.802Z,102727.81
2022-10-19T05:26:26.547Z,102731.22
2022-10-19T05:29:01.801Z,102724.22
2022-10-19T05:31:32.666Z,102724.97
2022-10-19T05:34:00.778Z,102719.50
2022-10-19T05:36:37.352Z,102721.03
2022-10-19T05:39:15.799Z,102724.31
2022-10-19T05:41:47.722Z,102727.78
2022-10-19T05:44:20.281Z,102718.06
2022-10-19T05:46:49.784Z,102724.16
2022-10-19T05:49:21.038Z,102730.31
2022-10-19T05:51:49.566Z,102726.94
2022-10-19T05:54:17.475Z,102719.94
2022-10-19T05:56:46.043Z,102723.38
2022-10-19T05:59:20.974Z,102719.00
2022-10-19T06:01:48.591Z,102718.06
2022-10-19T06:06:45.475Z,102722.25
2022-10-19T06:09:12.858Z,102718.63
2022-10-19T06:11:42.826Z,102717.66
2022-10-19T06:14:16.002Z,102720.16
2022-10-19T06:16:45.736Z,102707.84
2022-10-19T06:19:12.788Z,102717.41
2022-10-19T06:21:41.979Z,102714.91
2022-10-19T06:24:14.190Z,102717.66
2022-10-19T06:26:41.280Z,102714.31
2022-10-19T06:29:08.373Z,102715.25
2022-10-19T06:31:36.518Z,102713.56
2022-10-19T06:34:04.459Z,102715.44
2022-10-19T06:36:32.774Z,102720.78
2022-10-19T06:39:01.680Z,102722.63
2022-10-19T06:41:31.353Z,102726.25
2022-10-19T06:44:09.736Z,102715.94
2022-10-19T06:46:38.800Z,102715.22
2022-10-19T06:49:05.815Z,102715.41
2022-10-19T06:51:34.190Z,102715.50
2022-10-19T06:54:01.277Z,102713.88
2022-10-19T06:56:28.470Z,102718.41
2022-10-19T06:58:55.811Z,102712.41
2022-10-19T07:01:23.491Z,102709.03
2022-10-19T07:03:55.259Z,102714.34
2022-10-19T07:06:23.755Z,102708.41
2022-10-19T07:08:52.542Z,102710.25
2022-10-19T07:11:22.505Z,102704.28
2022-10-19T07:13:50.418Z,102712.28
2022-10-19T07:16:20.917Z,102716.81
2022-10-19T07:18:52.202Z,102716.81
2022-10-19T07:21:21.765Z,102719.56
2022-10-19T07:23:49.410Z,102726.66
2022-10-19T07:26:26.294Z,102724.13
2022-10-19T07:28:56.981Z,102725.13
2022-10-19T07:31:26.912Z,102726.16
2022-10-19T07:34:02.732Z,102725.41
2022-10-19T07:36:32.389Z,102728.16
2022-10-19T07:39:01.996Z,102721.34
2022-10-19T07:41:30.021Z,102717.13
2022-10-19T07:43:57.937Z,102713.78
2022-10-19T07:46:29.265Z,102708.66
2022-10-19T07:48:56.328Z,102702.69
2022-10-19T07:51:23.565Z,102700.25
2022-10-19T07:53:50.780Z,102705.66
2022-10-19T07:56:28.138Z,102698.78
2022-10-19T07:58:58.585Z,102699.78
2022-10-19T08:01:32.871Z,102699.00
2022-10-19T08:06:49.707Z,102706.13
2022-10-19T08:09:39.948Z,102712.34
2022-10-19T08:12:05.799Z,102716.78
2022-10-19T08:14:33.243Z,102715.94
2022-10-19T08:17:00.841Z,102713.31
2022-10-19T08:19:28.095Z,102703.69
2022-10-19T08:21:55.088Z,102708.06
2022-10-19T08:24:22.144Z,102697.53
2022-10-19T08:26:51.297Z,102711.63
2022-10-19T08:29:21.319Z,102708.13
2022-10-19T08:31:49.644Z,102694.06
2022-10-19T08:34:17.329Z,102694.06
2022-10-19T08:36:44.440Z,102691.41
2022-10-19T08:39:12.845Z,102682.63
2022-10-19T08:41:40.910Z,102683.47
2022-10-19T08:45:01.704Z,102674.66
2022-10-19T08:47:37.675Z,102679.91
2022-10-19T08:50:18.185Z,102684.28
2022-10-19T08:52:55.265Z,102669.31
2022-10-19T08:55:38.432Z,102673.66
2022-10-19T08:58:26.623Z,102670.97
2022-10-19T09:01:20.673Z,102670.03
2022-10-19T09:03:59.917Z,102669.13
2022-10-19T09:06:44.897Z,102659.38
2022-10-19T09:09:19.358Z,102658.47
2022-10-19T09:11:50.246Z,102651.38
2022-10-19T09:14:38.476Z,102646.88
2022-10-19T09:17:17.039Z,102645.97
2022-10-19T09:19:44.255Z,102640.59
2022-10-19T09:22:25.760Z,102634.34
2022-10-19T09:24:59.144Z,102632.53
2022-10-19T09:27:36.238Z,102633.31
2022-10-19T09:30:24.156Z,102632.34
2022-10-19T09:33:00.462Z,102639.31
2022-10-19T09:35:38.742Z,102634.75
2022-10-19T09:38:07.836Z,102631.16
2022-10-19T09:40:35.478Z,102630.16
2022-10-19T09:43:19.555Z,102632.75
2022-10-19T09:46:11.618Z,102635.31
2022-10-19T09:48:53.514Z,102640.53
2022-10-19T09:51:21.247Z,102633.41
2022-10-19T09:53:59.747Z,102622.72
2022-10-19T09:56:28.096Z,102620.84
2022-10-19T09:58:58.696Z,102608.41
2022-10-19T10:01:43.931Z,102609.22
2022-10-19T10:04:17.891Z,102611.84
2022-10-19T10:06:49.294Z,102618.94
2022-10-19T10:09:22.719Z,102611.88
2022-10-19T10:11:51.358Z,102618.00
2022-10-19T10:14:28.699Z,102615.25
2022-10-19T10:17:14.523Z,102620.56
2022-10-19T10:20:06.572Z,102619.63
2022-10-19T10:22:37.164Z,102618.72
2022-10-19T10:25:17.754Z,102610.81
2022-10-19T10:27:59.864Z,102616.16
2022-10-19T10:30:38.026Z,102613.59
2022-10-19T10:33:13.410Z,102606.50
2022-10-19T10:36:01.247Z,102607.41
2022-10-19T10:38:35.652Z,102610.00
2022-10-19T10:41:29.033Z,102597.56
2022-10-19T10:44:04.917Z,102590.44
2022-10-19T10:47:05.064Z,102584.94
2022-10-19T10:49:38.448Z,102576.81
2022-10-19T10:52:15.177Z,102567.81
2022-10-19T10:55:00.635Z,102565.91
2022-10-19T10:57:36.698Z,102574.69
2022-10-19T11:00:15.275Z,102568.56
2022-10-19T11:02:54.285Z,102549.84
2022-10-19T11:05:31.225Z,102550.69
2022-10-19T11:08:18.976Z,102539.91
2022-10-19T11:11:14.075Z,102536.09
2022-10-19T11:13:56.721Z,102536.66
2022-10-19T11:16:41.339Z,102535.66
2022-10-19T11:19:50.193Z,102537.38
2022-10-19T11:22:48.083Z,102534.50
2022-10-19T11:25:30.984Z,102526.50
2022-10-19T11:28:21.742Z,102529.91
2022-10-19T11:31:02.248Z,102532.50
2022-10-19T11:33:55.143Z,102520.84
2022-10-19T11:36:59.985Z,102523.28
2022-10-19T11:40:08.546Z,102506.16
2022-10-19T11:42:56.165Z,102500.97
2022-10-19T11:45:50.496Z,102500.16
2022-10-19T11:48:44.229Z,102492.09
2022-10-19T11:51:51.597Z,102484.88
2022-10-19T11:54:38.940Z,102483.13
2022-10-19T11:57:26.226Z,102484.56
2022-10-19T12:00:14.944Z,102467.56
2022-10-19T12:03:03.809Z,102467.28
2022-10-19T12:06:02.841Z,102461.78
2022-10-19T12:08:49.201Z,102461.91
2022-10-19T12:11:36.785Z,102458.34
2022-10-19T12:14:13.509Z,102452.06
2022-10-19T12:16:50.661Z,102452.84
2022-10-19T12:19:26.626Z,102453.81
2022-10-19T12:22:01.818Z,102451.91
2022-10-19T12:24:33.485Z,102448.19
2022-10-19T12:27:02.124Z,102435.50
2022-10-19T12:29:36.726Z,102430.28
2022-10-19T12:32:07.412Z,102422.50
2022-10-19T12:34:55.729Z,102414.59
2022-10-19T12:37:41.340Z,102411.09
2022-10-19T12:40:43.718Z,102412.78
2022-10-19T12:43:31.526Z,102406.44
2022-10-19T12:46:29.403Z,102402.19
2022-10-19T12:49:30.636Z,102400.47
2022-10-19T12:52:02.486Z,102395.13
2022-10-19T12:54:34.171Z,102393.00
2022-10-19T12:57:22.718Z,102385.94
2022-10-19T13:00:05.399Z,102370.19
2022-10-19T13:02:40.304Z,102374.53
2022-10-19T13:05:07.722Z,102364.75
2022-10-19T13:07:36.935Z,102356.97
2022-10-19T13:10:18.678Z,102351.56
2022-10-19T13:12:48.980Z,102349.63
2022-10-19T13:15:35.021Z,102346.97
2022-10-19T13:18:13.831Z,102344.38
2022-10-19T13:20:53.731Z,102339.13
2022-10-19T13:23:26.868Z,102341.09
2022-10-19T13:26:34.095Z,102342.97
2022-10-19T13:29:01.836Z,102332.38
2022-10-19T13:31:32.969Z,102327.13
2022-10-19T13:34:00.244Z,102321.81
2022-10-19T13:36:27.536Z,102317.41
2022-10-19T13:39:00.440Z,102318.44
2022-10-19T13:41:47.879Z,102312.47
2022-10-19T13:44:22.232Z,102306.97
2022-10-19T13:47:01.156Z,102307.03
2022-10-19T13:49:55.163Z,102310.00
2022-10-19T13:52:31.809Z,102298.59
2022-10-19T13:55:37.619Z,102297.78
2022-10-19T13:58:38.055Z,102295.25
2022-10-19T14:01:30.592Z,102295.47
2022-10-19T14:04:33.339Z,102284.41
2022-10-19T14:07:13.586Z,102287.28
2022-10-19T14:10:01.790Z,102285.75
2022-10-19T14:12:40.402Z,102285.09
2022-10-19T14:15:27.764Z,102273.72
2022-10-19T14:17:56.147Z,102281.81
2022-10-19T14:20:37.031Z,102278.41
2022-10-19T14:23:25.240Z,102270.63
2022-10-19T14:26:07.021Z,102276.00
2022-10-19T14:28:34.686Z,102273.44
2022-10-19T14:31:10.662Z,102272.59
2022-10-19T14:33:46.442Z,102266.50
2022-10-19T14:36:19.875Z,102265.75
2022-10-19T14:38:53.012Z,102266.66
2022-10-19T14:41:32.098Z,102260.59
2022-10-19T14:44:02.943Z,102259.81
2022-10-19T14:46:34.010Z,102259.91
2022-10-19T14:49:06.428Z,102254.63
2022-10-19T14:51:45.444Z,102264.38
2022-10-19T14:54:29.073Z,102254.69
2022-10-19T14:57:09.795Z,102259.06
2022-10-19T14:59:52.872Z,102252.72
2022-10-19T15:02:25.849Z,102248.03
2022-10-19T15:04:58.330Z,102241.63
2022-10-19T15:07:34.079Z,102231.72
2022-10-19T15:10:07.311Z,102236.91
2022-10-19T15:12:40.274Z,102230.81
2022-10-19T15:15:33.637Z,102227.31
2022-10-19T15:18:00.751Z,102225.59
2022-10-19T15:20:49.045Z,102229.00
2022-10-19T15:23:39.717Z,102230.59
2022-10-19T15:26:20.523Z,102221.91
2022-10-19T15:28:49.505Z,102226.47
2022-10-19T15:31:24.617Z,102214.19
2022-10-19T15:33:55.938Z,102217.00
2022-10-19T15:36:25.384Z,102214.56
2022-10-19T15:39:06.294Z,102213.03
2022-10-19T15:41:45.460Z,102205.34
2022-10-19T15:44:39.900Z,102206.47
2022-10-19T15:47:23.112Z,102202.28
2022-10-19T15:49:58.263Z,102199.00
2022-10-19T15:52:31.616Z,102194.78
2022-10-19T15:55:00.864Z,102185.28
2022-10-19T15:57:32.912Z,102180.19
2022-10-19T16:00:13.392Z,102176.00
2022-10-19T16:02:40.807Z,102173.53
2022-10-19T16:05:08.597Z,102170.19
2022-10-19T16:07:41.241Z,102164.22
2022-10-19T16:10:16.837Z,102161.72
2022-10-19T16:12:44.083Z,102153.94
2022-10-19T16:15:22.087Z,102154.97
2022-10-19T16:17:57.353Z,102158.66
2022-10-19T16:20:27.420Z,102162.38
2022-10-19T16:22:54.693Z,102163.31
2022-10-19T16:25:21.985Z,102159.91
2022-10-19T16:27:49.147Z,102147.69
2022-10-19T16:30:17.555Z,102149.53
2022-10-19T16:32:44.668Z,102145.25
2022-10-19T16:35:12.105Z,102132.19
2022-10-19T16:37:39.088Z,102137.50
2022-10-19T16:40:07.053Z,102140.25
2022-10-19T16:42:34.997Z,102132.38
2022-10-19T16:45:02.315Z,102131.50
2022-10-19T16:47:29.388Z,102133.34
2022-10-19T16:50:00.877Z,102134.22
2022-10-19T16:52:29.113Z,102138.66
2022-10-19T16:54:57.595Z,102123.72
2022-10-19T16:57:25.591Z,102120.28
2022-10-19T16:59:58.463Z,102123.84
2022-10-19T17:02:25.678Z,102115.09
2022-10-19T17:04:53.091Z,102120.41
2022-10-19T17:07:20.183Z,102116.09
2022-10-19T17:09:49.686Z,102111.69
2022-10-19T17:12:18.092Z,102123.19
2022-10-19T17:14:45.184Z,102120.63
2022-10-19T17:17:12.826Z,102118.03
2022-10-19T17:19:40.978Z,102111.91
2022-10-19T17:22:07.937Z,102096.91
2022-10-19T17:24:37.241Z,102104.03
2022-10-19T17:27:04.223Z,102100.53
2022-10-19T17:29:31.292Z,102094.41
2022-10-19T17:31:59.509Z,102083.91
2022-10-19T17:34:30.382Z,102093.59
2022-10-19T17:36:57.473Z,102090.13
2022-10-19T17:39:29.057Z,102090.09
2022-10-19T17:42:01.715Z,102098.06
2022-10-19T17:44:32.830Z,102093.75
2022-10-19T17:47:01.116Z,102096.38
2022-10-19T17:49:31.063Z,102095.50
2022-10-19T17:51:58.478Z,102083.22
2022-10-19T17:54:26.044Z,102092.03
2022-10-19T17:56:53.184Z,102092.97
2022-10-19T17:59:30.171Z,102092.09
2022-10-19T18:02:04.143Z,102085.13
2022-10-19T18:04:31.221Z,102083.38
2022-10-19T18:06:58.224Z,102089.56
2022-10-19T18:09:25.307Z,102086.06
2022-10-19T18:11:52.312Z,102090.44
2022-10-19T18:14:25.521Z,102102.75
2022-10-19T18:16:53.658Z,102099.22
2022-10-19T18:19:20.738Z,102095.75
2022-10-19T18:21:49.079Z,102094.88
2022-10-19T18:24:20.030Z,102100.19
2022-10-19T18:26:51.302Z,102099.28
2022-10-19T18:29:22.677Z,102091.47
2022-10-19T18:31:54.374Z,102092.38
2022-10-19T18:34:26.083Z,102096.75
2022-10-19T18:36:54.339Z,102094.19
2022-10-19T18:39:23.332Z,102091.53
2022-10-19T18:41:54.540Z,102091.59
2022-10-19T18:44:26.569Z,102081.06
2022-10-19T18:46:57.006Z,102074.94
2022-10-19T18:49:24.514Z,102076.72
2022-10-19T18:51:55.359Z,102074.09
2022-10-19T18:54:26.455Z,102074.13
2022-10-19T18:56:54.329Z,102071.50
2022-10-19T18:59:21.421Z,102068.03
2022-10-19T19:01:48.506Z,102059.25
2022-10-19T19:04:17.653Z,102059.28
2022-10-19T19:06:44.797Z,102047.88
2022-10-19T19:09:12.827Z,102046.13
2022-10-19T19:11:41.187Z,102044.38
2022-10-19T19:14:15.618Z,102034.75
2022-10-19T19:16:44.326Z,102034.81
2022-10-19T19:19:15.101Z,102032.22
2022-10-19T19:21:44.742Z,102033.09
2022-10-19T19:24:19.824Z,102036.69
2022-10-19T19:26:54.120Z,102027.94
2022-10-19T19:29:21.760Z,102034.09
2022-10-19T19:31:49.325Z,102012.19
2022-10-19T19:34:18.153Z,102011.28
2022-10-19T19:36:49.040Z,102012.19
2022-10-19T19:39:21.148Z,102003.38
2022-10-19T19:41:49.857Z,102002.56
2022-10-19T19:44:17.857Z,101996.41
2022-10-19T19:46:46.382Z,101995.63
2022-10-19T19:49:15.960Z,101988.56
2022-10-19T19:51:43.152Z,101978.06
2022-10-19T19:54:11.423Z,101976.34
2022-10-19T19:56:39.295Z,101986.06
2022-10-19T19:59:06.419Z,101993.13
2022-10-19T20:01:33.598Z,101991.38
2022-10-19T20:06:39.820Z,101978.31
2022-10-19T20:09:09.148Z,101973.94
2022-10-19T20:11:41.874Z,101971.38
2022-10-19T20:14:10.780Z,101974.00
2022-10-19T20:16:37.871Z,101973.16
2022-10-19T20:19:10.486Z,101966.16
2022-10-19T20:21:38.188Z,101968.81
2022-10-19T20:24:05.750Z,101964.47
2022-10-19T20:26:33.276Z,101949.56
2022-10-19T20:29:03.546Z,101952.22
2022-10-19T20:31:32.473Z,101949.59
2022-10-19T20:33:59.539Z,101940.84
2022-10-19T20:36:26.880Z,101942.59
2022-10-19T20:38:57.517Z,101937.34
2022-10-19T20:41:26.939Z,101930.38
2022-10-19T20:43:55.340Z,101927.75
2022-10-19T20:46:32.588Z,101912.00
2022-10-19T20:49:01.935Z,101906.75
2022-10-19T20:51:32.943Z,101899.75
2022-10-19T20:54:03.417Z,101915.56
2022-10-19T20:56:34.747Z,101900.66
2022-10-19T20:59:10.643Z,101909.47
2022-10-19T21:01:40.207Z,101904.25
2022-10-19T21:04:10.304Z,101899.84
2022-10-19T21:06:41.198Z,101904.25
2022-10-19T21:09:09.707Z,101903.44
2022-10-19T21:11:40.958Z,101899.91
2022-10-19T21:14:13.238Z,101902.53
2022-10-19T21:16:40.768Z,101908.69
2022-10-19T21:19:16.593Z,101903.47
2022-10-19T21:21:51.891Z,101909.63
2022-10-19T21:24:23.298Z,101904.38
2022-10-19T21:29:27.164Z,101897.38
2022-10-19T21:31:54.743Z,101897.41
2022-10-19T21:34:25.849Z,101893.03
2022-10-19T21:36:54.449Z,101889.53
2022-10-19T21:39:22.216Z,101899.19
2022-10-19T21:41:50.308Z,101892.22
2022-10-19T21:44:18.841Z,101873.81
2022-10-19T21:46:49.779Z,101868.53
2022-10-19T21:49:16.977Z,101872.09
2022-10-19T21:51:50.080Z,101874.72
2022-10-19T21:54:20.737Z,101866.88
2022-10-19T21:56:48.827Z,101872.13
2022-10-19T21:59:17.600Z,101872.13
2022-10-19T22:01:44.773Z,101872.16
2022-10-19T22:04:17.370Z,101866.88
2022-10-19T22:06:45.616Z,101863.41
2022-10-19T22:09:21.616Z,101856.38
2022-10-19T22:11:48.900Z,101855.53
2022-10-19T22:14:17.491Z,101853.78
2022-10-19T22:16:44.986Z,101852.03
2022-10-19T22:19:12.696Z,101842.41
2022-10-19T22:21:40.412Z,101844.16
2022-10-19T22:24:13.471Z,101847.66
2022-10-19T22:26:45.672Z,101840.69
2022-10-19T22:29:13.707Z,101829.31
2022-10-19T22:31:40.838Z,101830.22
2022-10-19T22:34:15.310Z,101831.09
2022-10-19T22:36:42.959Z,101809.19
2022-10-19T22:39:10.252Z,101804.81
2022-10-19T22:42:52.420Z,101802.19
2022-10-19T22:45:24.312Z,101813.63
2022-10-19T22:47:51.266Z,101811.88
2022-10-19T22:50:18.332Z,101798.75
2022-10-19T22:52:46.348Z,101797.88
2022-10-19T22:55:13.287Z,101787.34
2022-10-19T22:57:40.302Z,101777.72
2022-10-19T23:00:08.354Z,101769.84
2022-10-19T23:02:35.603Z,101771.59
2022-10-19T23:05:02.999Z,101774.22
2022-10-19T23:07:30.104Z,101765.47
2022-10-19T23:09:57.076Z,101761.97
2022-10-19T23:12:24.104Z,101780.38
2022-10-19T23:14:51.175Z,101777.72
2022-10-19T23:17:18.211Z,101760.22
2022-10-19T23:19:46.147Z,101747.09
2022-10-19T23:22:13.131Z,101753.22
2022-10-19T23:24:40.239Z,101747.97
2022-10-19T23:27:07.399Z,101743.63
2022-10-19T23:29:35.411Z,101746.25
2022-10-19T23:32:04.884Z,101745.38
2022-10-19T23:34:32.003Z,101748.00
2022-10-19T23:36:59.040Z,101753.28
2022-10-19T23:39:26.074Z,101745.41
2022-10-19T23:41:53.080Z,101738.38
2022-10-19T23:44:20.079Z,101739.28
2022-10-19T23:46:47.093Z,101728.78
2022-10-19T23:49:14.197Z,101729.69
2022-10-19T23:51:41.224Z,101727.91
2022-10-19T23:54:08.339Z,101723.56
2022-10-19T23:56:35.380Z,101719.19
2022-10-19T23:59:03.484Z,101713.94
